Heathfield, United Kingdom
Current Conditions -  °F | °C
As of 8:50 PM on Saturday 20 Dec 2014 (Local Time) from EGKK Reporting Station
Clear Clear  
Wind Chill: 40°   Ceiling: Unl
Heat Index: 43°   Visibility: 6mi
Dew Point: 37°   Wind: 5mph
Humidity: 81%   Direction: 150°SSE
Pressure: 30.45"   Gusts: NA
Location:  50.97°N, 0.25°E
Report Text: EGKK 202050Z 15004KT CAVOK 06/03 Q1031
Loading
Personal Weather Stations






























Interactive Weather Map New forecast layout! Learn more

10-Day Weather Forecast

Advertisements
Track Severe Weather on mobile